< < Back
Terminal Aerodrome Forecast


Current Version              Previous Versions:   1  2  3  4  5  6  7  8  9  

Terminal Aerodrome Forecast

697
FTUS42 KJAX 282303 AAB
TAFJAX
TAF AMD
KJAX 282303Z 2823/2918 08012KT P6SM FEW050 SCT250
     FM290200 09003KT P6SM SCT250
     FM291400 08008KT P6SM SCT030 SCT250
     FM291700 08010G17KT P6SM SCT040 SCT250=

Latest METAR

427
SAUS80 KWBC 291200 RRA
MTRJAX
METAR KJAX 291156Z 00000KT 10SM FEW035 SCT250 22/19 A3013 RMK AO2 SLP204
T02170189 10217 20167 53013


USA.gov is the U.S. government's official web portal to all federal, state and local government web resources and services.